createdAt,value
2019-02-15T00:02:15.949Z,70.17
2019-02-15T00:04:44.352Z,70.43
2019-02-15T00:07:31.019Z,77.77
2019-02-15T00:09:59.409Z,73.20
2019-02-15T00:12:27.808Z,78.50
2019-02-15T00:14:56.384Z,81.60
2019-02-15T00:17:26.407Z,78.17
2019-02-15T00:26:14.236Z,93.40
2019-02-15T00:28:42.654Z,101.50
2019-02-15T00:31:12.769Z,96.47
2019-02-15T00:33:41.140Z,92.47
2019-02-15T00:36:09.563Z,98.47
2019-02-15T00:38:37.933Z,88.43
2019-02-15T00:41:06.336Z,88.53
2019-02-15T00:43:34.743Z,93.10
2019-02-15T00:46:07.709Z,99.77
2019-02-15T00:48:36.093Z,104.33
2019-02-15T00:51:09.317Z,106.77
2019-02-15T00:53:39.426Z,105.47
2019-02-15T00:56:21.586Z,101.10
2019-02-15T00:58:51.679Z,105.37
2019-02-15T01:01:38.208Z,105.73
2019-02-15T01:04:17.383Z,106.83
2019-02-15T01:07:04.137Z,105.87
2019-02-15T01:09:50.894Z,103.13
2019-02-15T01:12:23.617Z,98.40
2019-02-15T01:14:52.080Z,98.07
2019-02-15T01:17:20.476Z,102.90
2019-02-15T01:19:48.884Z,98.73
2019-02-15T01:22:17.299Z,105.37
2019-02-15T01:24:45.761Z,108.30
2019-02-15T01:27:18.849Z,118.67
2019-02-15T01:29:49.578Z,114.97
2019-02-15T01:32:25.545Z,120.70
2019-02-15T01:35:01.237Z,113.30
2019-02-15T01:37:50.531Z,122.80
2019-02-15T01:40:38.571Z,130.67
2019-02-15T01:43:11.378Z,139.97
2019-02-15T01:45:41.463Z,140.03
2019-02-15T01:48:09.882Z,143.37
2019-02-15T01:50:38.811Z,141.80
2019-02-15T01:53:07.215Z,127.87
2019-02-15T01:55:35.595Z,126.67
2019-02-15T01:58:04.033Z,130.93
2019-02-15T02:00:33.298Z,126.70
2019-02-15T02:03:01.713Z,130.93
2019-02-15T02:05:30.155Z,123.47
2019-02-15T02:07:58.648Z,129.27
2019-02-15T02:10:27.116Z,127.37
2019-02-15T02:12:55.675Z,120.93
2019-02-15T02:15:24.076Z,132.40
2019-02-15T02:17:52.495Z,129.70
2019-02-15T02:20:20.992Z,121.73
2019-02-15T02:22:49.402Z,119.27
2019-02-15T02:25:17.801Z,119.20
2019-02-15T02:27:46.258Z,122.13
2019-02-15T02:30:14.637Z,119.30
2019-02-15T02:32:44.158Z,118.73
2019-02-15T02:35:12.962Z,111.10
2019-02-15T02:37:42.991Z,119.33
2019-02-15T02:40:11.699Z,115.53
2019-02-15T02:42:40.082Z,123.27
2019-02-15T02:45:09.018Z,119.87
2019-02-15T02:47:37.397Z,117.70
2019-02-15T02:50:07.163Z,130.53
2019-02-15T02:52:35.535Z,128.63
2019-02-15T02:55:04.427Z,132.87
2019-02-15T02:57:32.870Z,126.80
2019-02-15T03:00:01.227Z,132.97
2019-02-15T03:02:29.624Z,130.73
2019-02-15T03:04:58.067Z,132.47
2019-02-15T03:07:26.487Z,137.20
2019-02-15T03:09:55.984Z,130.93
2019-02-15T03:12:26.016Z,129.87
2019-02-15T03:14:56.672Z,134.20
2019-02-15T03:17:25.559Z,132.10
2019-02-15T03:19:54.521Z,138.83
2019-02-15T03:22:22.966Z,138.30
2019-02-15T03:24:51.387Z,138.53
2019-02-15T03:27:19.879Z,135.47
2019-02-15T03:29:48.335Z,148.67
2019-02-15T03:32:17.632Z,138.50
2019-02-15T03:34:46.025Z,144.77
2019-02-15T03:37:34.201Z,142.10
2019-02-15T03:40:05.969Z,139.20
2019-02-15T03:42:36.232Z,141.53
2019-02-15T03:45:06.807Z,145.70
2019-02-15T03:47:36.397Z,135.03
2019-02-15T03:50:07.505Z,143.00
2019-02-15T03:52:36.002Z,131.27
2019-02-15T03:55:05.896Z,136.10
2019-02-15T03:57:34.331Z,143.07
2019-02-15T04:00:02.756Z,140.97
2019-02-15T04:02:33.487Z,143.37
2019-02-15T04:05:01.876Z,138.37
2019-02-15T04:07:30.282Z,149.90
2019-02-15T04:09:58.679Z,148.97
2019-02-15T04:12:27.110Z,145.57
2019-02-15T04:14:55.486Z,147.07
2019-02-15T04:17:23.920Z,154.10
2019-02-15T04:19:53.159Z,149.77
2019-02-15T04:22:21.556Z,156.07
2019-02-15T04:24:49.992Z,151.17
2019-02-15T04:27:18.388Z,147.83
2019-02-15T04:29:46.801Z,156.27
2019-02-15T04:32:15.329Z,145.20
2019-02-15T04:34:43.728Z,156.97
2019-02-15T04:37:12.187Z,147.77
2019-02-15T04:39:40.600Z,158.30
2019-02-15T04:42:08.998Z,147.40
2019-02-15T04:44:42.765Z,136.43
2019-02-15T04:47:08.908Z,144.70
2019-02-15T04:49:37.343Z,149.87
2019-02-15T04:52:05.771Z,150.77
2019-02-15T04:54:34.140Z,150.50
2019-02-15T04:57:04.112Z,141.53
2019-02-15T04:59:32.977Z,153.50
2019-02-15T05:02:01.352Z,141.73
2019-02-15T05:04:31.670Z,138.00
2019-02-15T05:07:00.103Z,139.83
2019-02-15T05:09:28.493Z,141.63
2019-02-15T05:11:56.872Z,138.50
2019-02-15T05:14:26.180Z,133.03
2019-02-15T05:16:54.566Z,133.67
2019-02-15T05:19:23.052Z,134.27
2019-02-15T05:21:51.461Z,138.97
2019-02-15T05:24:19.836Z,142.00
2019-02-15T05:26:48.283Z,137.53
2019-02-15T05:29:16.721Z,137.20
2019-02-15T05:31:45.568Z,136.07
2019-02-15T05:34:14.000Z,129.97
2019-02-15T05:36:42.415Z,136.33
2019-02-15T05:39:10.789Z,129.07
2019-02-15T05:41:40.272Z,134.93
2019-02-15T05:44:08.705Z,137.93
2019-02-15T05:46:37.117Z,127.87
2019-02-15T05:49:05.494Z,132.30
2019-02-15T05:51:34.342Z,139.53
2019-02-15T05:54:07.727Z,135.73
2019-02-15T05:56:37.813Z,133.40
2019-02-15T05:59:08.937Z,139.80
2019-02-15T06:01:37.678Z,139.33
2019-02-15T06:04:06.046Z,139.40
2019-02-15T06:06:34.517Z,136.70
2019-02-15T06:09:04.760Z,136.00
2019-02-15T06:11:33.130Z,147.33
2019-02-15T06:14:01.549Z,143.47
2019-02-15T06:16:29.932Z,139.83
2019-02-15T06:18:58.302Z,144.67
2019-02-15T06:21:26.968Z,135.67
2019-02-15T06:23:55.341Z,148.90
2019-02-15T06:26:23.717Z,151.10
2019-02-15T06:28:52.112Z,142.70
2019-02-15T06:31:20.506Z,143.07
2019-02-15T06:33:48.881Z,147.17
2019-02-15T06:36:17.258Z,136.43
2019-02-15T06:38:45.763Z,144.73
2019-02-15T06:41:14.774Z,145.47
2019-02-15T06:43:43.128Z,128.47
2019-02-15T06:46:11.534Z,123.33
2019-02-15T06:48:39.921Z,134.37
2019-02-15T06:51:08.326Z,132.90
2019-02-15T06:53:36.816Z,129.23
2019-02-15T06:56:05.207Z,131.07
2019-02-15T06:58:33.573Z,140.33
2019-02-15T07:01:06.026Z,132.07
2019-02-15T07:03:36.088Z,133.80
2019-02-15T07:06:04.457Z,124.23
2019-02-15T07:08:33.996Z,123.63
2019-02-15T07:11:02.383Z,120.90
2019-02-15T07:13:32.402Z,126.63
2019-02-15T07:16:00.840Z,125.07
2019-02-15T07:18:29.221Z,110.87
2019-02-15T07:20:57.615Z,116.20
2019-02-15T07:23:26.040Z,119.77
2019-02-15T07:25:54.418Z,111.07
2019-02-15T07:28:22.825Z,116.77
2019-02-15T07:30:51.490Z,125.73
2019-02-15T07:33:19.826Z,117.77
2019-02-15T07:35:48.221Z,122.30
2019-02-15T07:38:16.645Z,117.70
2019-02-15T07:40:46.647Z,111.40
2019-02-15T07:43:15.040Z,108.27
2019-02-15T07:45:43.469Z,113.37
2019-02-15T07:48:13.562Z,116.73
2019-02-15T07:51:09.089Z,106.97
2019-02-15T07:53:30.522Z,105.53
2019-02-15T07:55:58.914Z,105.30
2019-02-15T07:58:28.930Z,115.33
2019-02-15T08:00:58.486Z,101.30
2019-02-15T08:03:26.972Z,101.23
2019-02-15T08:05:55.427Z,96.23
2019-02-15T08:08:23.837Z,91.67
2019-02-15T08:10:54.628Z,90.10
2019-02-15T08:13:23.013Z,87.47
2019-02-15T08:15:52.226Z,90.23
2019-02-15T08:18:20.763Z,95.77
2019-02-15T08:20:49.179Z,92.13
2019-02-15T08:23:17.575Z,92.00
2019-02-15T08:25:45.940Z,91.50
2019-02-15T08:28:14.759Z,88.80
2019-02-15T08:30:43.130Z,93.37
2019-02-15T08:33:11.591Z,87.00
2019-02-15T08:35:40.016Z,83.70
2019-02-15T08:38:09.066Z,82.43
2019-02-15T08:40:37.663Z,79.60
2019-02-15T08:43:06.116Z,84.03
2019-02-15T08:45:34.485Z,82.33
2019-02-15T08:48:02.867Z,83.77
2019-02-15T08:50:32.416Z,88.47
2019-02-15T08:53:00.825Z,76.47
2019-02-15T08:55:29.217Z,77.53
2019-02-15T08:57:57.673Z,77.13
2019-02-15T09:00:26.212Z,69.93
2019-02-15T09:02:55.967Z,72.00
2019-02-15T09:05:24.331Z,80.33
2019-02-15T09:07:52.783Z,70.53
2019-02-15T09:10:21.159Z,71.87
2019-02-15T09:12:49.589Z,72.10
2019-02-15T09:15:20.606Z,69.83
2019-02-15T09:17:48.986Z,68.53
2019-02-15T09:20:17.477Z,67.40
2019-02-15T09:22:45.838Z,66.70
2019-02-15T09:25:14.236Z,70.03
2019-02-15T09:27:47.362Z,73.00
2019-02-15T09:30:15.832Z,70.73
2019-02-15T09:32:44.208Z,67.37
2019-02-15T09:35:12.734Z,63.73
2019-02-15T09:37:41.099Z,66.33
2019-02-15T09:40:10.257Z,66.23
2019-02-15T09:42:38.641Z,68.23
2019-02-15T09:45:10.392Z,75.30
2019-02-15T09:47:38.848Z,65.20
2019-02-15T09:50:10.227Z,66.50
2019-02-15T09:52:39.452Z,72.07
2019-02-15T09:55:07.831Z,62.73
2019-02-15T09:57:36.238Z,62.23
2019-02-15T10:00:10.158Z,65.50
2019-02-15T10:02:38.666Z,65.73
2019-02-15T10:05:08.902Z,61.67
2019-02-15T10:07:55.367Z,65.47
2019-02-15T10:10:24.159Z,65.20
2019-02-15T10:12:52.531Z,66.23
2019-02-15T10:15:20.908Z,59.80
2019-02-15T10:17:49.292Z,69.03
2019-02-15T10:20:17.669Z,68.63
2019-02-15T10:22:46.055Z,64.20
2019-02-15T10:25:14.455Z,69.83
2019-02-15T10:27:42.857Z,69.77
2019-02-15T10:30:12.611Z,58.50
2019-02-15T10:32:41.012Z,71.80
2019-02-15T10:35:12.571Z,70.43
2019-02-15T10:37:40.983Z,66.93
2019-02-15T10:40:12.280Z,69.17
2019-02-15T10:42:40.667Z,70.63
2019-02-15T10:45:15.931Z,70.13
2019-02-15T10:47:44.320Z,82.83
2019-02-15T10:50:12.737Z,81.10
2019-02-15T10:52:41.236Z,74.17
2019-02-15T10:55:09.671Z,79.20
2019-02-15T10:57:38.178Z,86.03
2019-02-15T11:00:21.953Z,83.90
2019-02-15T11:02:50.396Z,84.33
2019-02-15T11:05:19.054Z,79.87
2019-02-15T11:07:47.472Z,84.40
2019-02-15T11:10:15.882Z,83.27
2019-02-15T11:12:44.243Z,90.37
2019-02-15T11:15:15.124Z,90.03
2019-02-15T11:17:43.530Z,82.37
2019-02-15T11:20:16.543Z,79.57
2019-02-15T11:22:44.940Z,81.50
2019-02-15T11:25:13.301Z,88.30
2019-02-15T11:27:41.723Z,83.33
2019-02-15T11:30:14.840Z,87.67
2019-02-15T11:32:43.219Z,89.53
2019-02-15T11:35:12.792Z,99.67
2019-02-15T11:37:41.181Z,87.77
2019-02-15T11:40:12.171Z,81.97
2019-02-15T11:42:42.557Z,88.73
2019-02-15T11:45:12.498Z,90.53
2019-02-15T11:47:40.897Z,87.63
2019-02-15T11:50:12.178Z,87.23
2019-02-15T11:52:40.563Z,87.70
2019-02-15T11:55:10.720Z,93.23
2019-02-15T11:57:39.166Z,94.17
2019-02-15T12:00:14.778Z,84.90
2019-02-15T12:02:43.301Z,91.00
2019-02-15T12:05:11.815Z,91.73
2019-02-15T12:07:40.194Z,96.80
2019-02-15T12:10:10.332Z,100.50
2019-02-15T12:12:38.746Z,92.67
2019-02-15T12:15:08.779Z,98.53
2019-02-15T12:17:37.186Z,96.37
2019-02-15T12:20:11.940Z,100.67
2019-02-15T12:22:40.344Z,101.90
2019-02-15T12:25:09.935Z,100.70
2019-02-15T12:27:38.444Z,102.43
2019-02-15T12:30:13.287Z,97.87
2019-02-15T12:32:41.685Z,95.93
2019-02-15T12:35:10.932Z,100.03
2019-02-15T12:37:39.365Z,106.90
2019-02-15T12:40:09.945Z,99.57
2019-02-15T12:42:38.336Z,101.33
2019-02-15T12:45:09.653Z,101.33
2019-02-15T12:47:38.041Z,103.00
2019-02-15T12:50:17.628Z,99.33
2019-02-15T12:52:46.019Z,96.00
2019-02-15T12:55:14.403Z,106.73
2019-02-15T12:57:42.814Z,100.77
2019-02-15T13:00:16.552Z,112.13
2019-02-15T13:02:44.920Z,105.20
2019-02-15T13:05:13.907Z,107.63
2019-02-15T13:07:42.279Z,103.67
2019-02-15T13:10:13.536Z,108.73
2019-02-15T13:12:41.884Z,104.70
2019-02-15T13:15:11.670Z,107.10
2019-02-15T13:17:40.214Z,113.53
2019-02-15T13:20:09.658Z,95.77
2019-02-15T13:22:38.059Z,99.87
2019-02-15T13:25:07.534Z,95.70
2019-02-15T13:27:35.931Z,100.33
2019-02-15T13:30:12.314Z,98.63
2019-02-15T13:32:45.658Z,101.67
2019-02-15T13:35:20.054Z,97.20
2019-02-15T13:37:48.639Z,92.77
2019-02-15T13:40:17.022Z,99.20
2019-02-15T13:42:45.399Z,98.27
2019-02-15T13:45:13.883Z,103.03
2019-02-15T13:47:42.318Z,102.13
2019-02-15T13:50:12.913Z,102.83
2019-02-15T13:52:41.319Z,95.47
2019-02-15T13:55:10.871Z,99.07
2019-02-15T13:57:39.737Z,102.27
2019-02-15T14:00:11.245Z,106.20
2019-02-15T14:02:39.647Z,101.47
2019-02-15T14:05:10.515Z,103.30
2019-02-15T14:07:38.917Z,101.23
2019-02-15T14:10:10.116Z,104.63
2019-02-15T14:12:38.561Z,107.10
2019-02-15T14:15:08.290Z,101.17
2019-02-15T14:17:44.370Z,99.37
2019-02-15T14:20:13.650Z,105.13
2019-02-15T14:22:43.452Z,104.77
2019-02-15T14:25:12.313Z,128.07
2019-02-15T14:27:40.700Z,125.60
2019-02-15T14:30:11.183Z,121.83
2019-02-15T14:32:39.639Z,131.03
2019-02-15T14:35:09.852Z,129.03
2019-02-15T14:37:38.932Z,129.37
2019-02-15T14:40:12.075Z,131.60
2019-02-15T14:42:40.478Z,124.33
2019-02-15T14:45:13.544Z,131.37
2019-02-15T14:47:42.000Z,132.37
2019-02-15T14:50:11.146Z,133.83
2019-02-15T14:52:41.591Z,139.80
2019-02-15T14:55:11.804Z,131.93
2019-02-15T14:57:42.135Z,132.03
2019-02-15T15:00:12.642Z,131.63
2019-02-15T15:02:41.034Z,126.40
2019-02-15T15:05:11.415Z,134.20
2019-02-15T15:07:39.797Z,141.03
2019-02-15T15:10:09.941Z,141.77
2019-02-15T15:12:38.434Z,132.43
2019-02-15T15:15:11.684Z,133.73
2019-02-15T15:17:40.169Z,133.70
2019-02-15T15:20:10.474Z,129.63
2019-02-15T15:22:38.895Z,142.83
2019-02-15T15:25:15.635Z,147.03
2019-02-15T15:27:44.039Z,137.87
2019-02-15T15:30:13.867Z,145.73
2019-02-15T15:32:42.248Z,141.27
2019-02-15T15:35:11.581Z,144.20
2019-02-15T15:37:39.995Z,143.30
2019-02-15T15:40:13.390Z,154.60
2019-02-15T15:42:42.091Z,144.90
2019-02-15T15:45:11.872Z,147.03
2019-02-15T15:47:40.247Z,148.10
2019-02-15T15:50:12.607Z,151.57
2019-02-15T15:52:41.012Z,140.90
2019-02-15T15:55:13.543Z,157.87
2019-02-15T15:57:41.927Z,149.47
2019-02-15T16:00:15.346Z,158.47
2019-02-15T16:02:43.731Z,151.50
2019-02-15T16:05:12.192Z,152.10
2019-02-15T16:07:40.627Z,147.33
2019-02-15T16:10:13.815Z,154.23
2019-02-15T16:12:43.904Z,160.47
2019-02-15T16:15:13.256Z,153.37
2019-02-15T16:17:45.617Z,153.00
2019-02-15T16:20:20.732Z,156.10
2019-02-15T16:22:51.913Z,164.10
2019-02-15T16:25:21.648Z,158.50
2019-02-15T16:27:51.265Z,161.03
2019-02-15T16:30:21.358Z,170.40
2019-02-15T16:32:49.695Z,169.00
2019-02-15T16:35:18.196Z,174.40
2019-02-15T16:37:46.599Z,173.73
2019-02-15T16:40:16.600Z,175.73
2019-02-15T16:42:45.194Z,188.43
2019-02-15T16:45:16.959Z,194.63
2019-02-15T16:47:48.629Z,189.57
2019-02-15T16:50:20.152Z,183.67
2019-02-15T16:52:48.630Z,200.73
2019-02-15T16:55:18.141Z,208.77
2019-02-15T16:57:49.047Z,186.97
2019-02-15T17:00:17.528Z,193.77
2019-02-15T17:02:46.425Z,190.67
2019-02-15T17:05:17.370Z,181.60
2019-02-15T17:07:46.691Z,178.83
2019-02-15T17:10:15.019Z,174.10
2019-02-15T17:12:45.503Z,172.60
2019-02-15T17:15:16.131Z,163.40
2019-02-15T17:17:47.308Z,151.30
2019-02-15T17:20:15.704Z,142.73
2019-02-15T17:22:47.977Z,151.90
2019-02-15T17:25:20.585Z,139.83
2019-02-15T17:27:48.970Z,144.67
2019-02-15T17:30:19.040Z,149.07
2019-02-15T17:32:47.476Z,135.37
2019-02-15T17:35:15.894Z,152.53
2019-02-15T17:37:44.286Z,141.40
2019-02-15T17:40:16.489Z,137.67
2019-02-15T17:42:46.309Z,149.27
2019-02-15T17:45:16.314Z,148.87
2019-02-15T17:47:46.333Z,145.60
2019-02-15T17:50:14.776Z,143.93
2019-02-15T17:52:44.889Z,145.40
2019-02-15T17:55:13.286Z,149.17
2019-02-15T17:57:42.399Z,150.10
2019-02-15T18:00:14.988Z,149.33
2019-02-15T18:02:43.893Z,158.18
2019-02-15T18:05:18.833Z,152.00
2019-02-15T18:07:49.169Z,141.17
2019-02-15T18:10:17.581Z,144.07
2019-02-15T18:12:47.038Z,149.90
2019-02-15T18:15:15.873Z,150.80
2019-02-15T18:17:44.807Z,152.07
2019-02-15T18:20:13.287Z,161.07
2019-02-15T18:22:41.662Z,157.43
2019-02-15T18:25:10.035Z,158.07
2019-02-15T18:27:38.468Z,154.80
2019-02-15T18:30:10.142Z,154.03
2019-02-15T18:32:38.515Z,158.43
2019-02-15T18:35:13.259Z,158.10
2019-02-15T18:37:37.368Z,163.57
2019-02-15T18:40:08.703Z,161.40
2019-02-15T18:42:37.125Z,166.37
2019-02-15T18:45:08.750Z,164.57
2019-02-15T18:47:37.127Z,165.03
2019-02-15T18:50:07.788Z,164.57
2019-02-15T18:52:36.173Z,161.97
2019-02-15T18:55:06.175Z,164.67
2019-02-15T18:57:34.607Z,152.67
2019-02-15T19:00:06.586Z,159.77
2019-02-15T19:02:34.995Z,167.30
2019-02-15T19:05:03.918Z,142.77
2019-02-15T19:07:32.316Z,150.37
2019-02-15T19:10:00.745Z,154.60
2019-02-15T19:12:29.122Z,167.53
2019-02-15T19:14:57.554Z,160.10
2019-02-15T19:17:25.933Z,163.33
2019-02-15T19:19:54.319Z,168.17
2019-02-15T19:22:22.727Z,167.83
2019-02-15T19:24:51.102Z,160.73
2019-02-15T19:27:19.496Z,175.57
2019-02-15T19:29:49.042Z,171.83
2019-02-15T19:32:17.388Z,163.33
2019-02-15T19:34:45.774Z,160.93
2019-02-15T19:37:14.189Z,162.57
2019-02-15T19:39:45.428Z,152.73
2019-02-15T19:42:14.596Z,165.83
2019-02-15T19:44:42.984Z,161.00
2019-02-15T19:47:11.667Z,162.03
2019-02-15T19:49:40.089Z,165.73
2019-02-15T19:52:10.117Z,158.30
2019-02-15T19:54:38.501Z,152.27
2019-02-15T19:57:12.628Z,168.43
2019-02-15T19:59:41.049Z,162.90
2019-02-15T20:05:02.225Z,176.13
2019-02-15T20:07:31.074Z,166.93
2019-02-15T20:10:02.779Z,173.27
2019-02-15T20:12:31.802Z,170.67
2019-02-15T20:15:01.165Z,188.78
2019-02-15T20:17:31.341Z,183.10
2019-02-15T20:20:00.300Z,179.83
2019-02-15T20:22:30.611Z,182.57
2019-02-15T20:25:01.776Z,183.53
2019-02-15T20:27:33.994Z,171.93
2019-02-15T20:30:03.543Z,169.03
2019-02-15T20:32:32.692Z,167.23
2019-02-15T20:35:01.568Z,170.03
2019-02-15T20:37:30.122Z,169.10
2019-02-15T20:40:00.467Z,181.77
2019-02-15T20:42:29.562Z,180.10
2019-02-15T20:44:58.426Z,192.73
2019-02-15T20:47:28.579Z,183.97
2019-02-15T20:50:02.994Z,185.27
2019-02-15T20:52:31.581Z,169.37
2019-02-15T20:55:00.054Z,183.93
2019-02-15T20:57:28.494Z,177.57
2019-02-15T20:59:58.284Z,184.60
2019-02-15T21:02:26.693Z,186.10
2019-02-15T21:04:57.048Z,185.47
2019-02-15T21:07:27.460Z,184.23
2019-02-15T21:09:56.583Z,187.67
2019-02-15T21:12:26.881Z,177.70
2019-02-15T21:14:59.604Z,193.27
2019-02-15T21:17:30.347Z,186.00
2019-02-15T21:20:07.242Z,186.57
2019-02-15T21:22:31.228Z,200.03
2019-02-15T21:25:02.094Z,178.47
2019-02-15T21:27:30.537Z,173.37
2019-02-15T21:29:59.910Z,182.83
2019-02-15T21:32:28.835Z,164.00
2019-02-15T21:34:57.262Z,177.10
2019-02-15T21:37:29.105Z,172.27
2019-02-15T21:39:58.345Z,171.07
2019-02-15T21:42:28.490Z,170.23
2019-02-15T21:44:57.766Z,171.17
2019-02-15T21:47:26.567Z,176.57
2019-02-15T21:49:55.567Z,180.03
2019-02-15T21:52:24.574Z,191.77
2019-02-15T21:54:56.446Z,170.93
2019-02-15T21:57:30.975Z,192.47
2019-02-15T21:59:59.773Z,188.77
2019-02-15T22:02:28.434Z,175.03
2019-02-15T22:04:58.553Z,176.97
2019-02-15T22:08:28.750Z,167.23
2019-02-15T22:11:00.265Z,155.77
2019-02-15T22:13:29.078Z,152.03
2019-02-15T22:16:01.570Z,141.10
2019-02-15T22:18:30.389Z,141.57
2019-02-15T22:21:00.023Z,140.13
2019-02-15T22:23:30.925Z,145.10
2019-02-15T22:26:03.233Z,140.73
2019-02-15T22:28:33.293Z,149.87
2019-02-15T22:31:04.191Z,153.33
2019-02-15T22:33:33.585Z,152.83
2019-02-15T22:36:03.045Z,158.57
2019-02-15T22:38:32.470Z,157.20
2019-02-15T22:41:14.560Z,161.27
2019-02-15T22:43:45.336Z,164.27
2019-02-15T22:46:15.536Z,166.30
2019-02-15T22:48:45.150Z,161.10
2019-02-15T22:51:14.218Z,169.43
2019-02-15T22:53:46.293Z,162.70
2019-02-15T22:56:16.781Z,150.67
2019-02-15T22:58:46.558Z,145.07
2019-02-15T23:01:15.648Z,135.90
2019-02-15T23:03:44.149Z,142.80
2019-02-15T23:06:12.683Z,134.83
2019-02-15T23:08:41.193Z,147.33
2019-02-15T23:11:11.469Z,147.20
2019-02-15T23:13:43.386Z,164.27
2019-02-15T23:16:22.413Z,171.90
2019-02-15T23:18:52.971Z,165.80
2019-02-15T23:21:21.355Z,171.80
2019-02-15T23:23:51.427Z,167.53
2019-02-15T23:26:20.241Z,175.43
2019-02-15T23:28:50.616Z,166.83
2019-02-15T23:31:19.053Z,180.47
2019-02-15T23:33:47.941Z,184.53
2019-02-15T23:36:16.372Z,191.43
2019-02-15T23:38:45.149Z,193.97
2019-02-15T23:41:16.941Z,183.00
2019-02-15T23:43:46.823Z,183.37
2019-02-15T23:46:17.654Z,170.73
2019-02-15T23:48:47.049Z,170.57
2019-02-15T23:51:20.439Z,153.97
2019-02-15T23:53:49.023Z,177.80
2019-02-15T23:56:18.398Z,210.03
2019-02-15T23:58:46.935Z,196.03
